Etusivu
METAR-TAF:

METAR-TAF

Lentoasemat :

Chongqing Jiangbein kansainvälinen lentoasema

Chongqing, Kiina

Leveyspiiri: 29-31N, Pituuspiiri: 106-29E, korkeus merenpinnasta: 351 m

Tämänhetkinen sää

Tämä raportti tehtiin 35 minuuttia sitten, kello 15.00 UTC
Tuuli 6 kn pohjoisesta
Lämpötila 10°C
Kosteus 76%
Ilmanpaine 1022 hPa
Näkyvyys: 5000 m
utua

METAR: ZUCK 091500Z 36003MPS 5000 BR NSC 10/06 Q1022 NOSIG

Aika: 23:35 (15:35 UTC)

Sääennuste

Tämä raportti tehtiin 6 tuntia ja 31 minuuttia sitten, kello 09.04 UTC
Ennuste voimassa 09. päivästä klo 12 UTC - 10. päivään klo 12 UTC
Tuuli 6 kn idästä
Näkyvyys: 3500 m
Hajanaisia pilviä 4000 ft:n korkeudessa
utua
Tulossa
09. päivästä klo 22 UTC - 09. päivään klo 23 UTC
Näkyvyys: 1500 m
utua
Tulossa
10. päivästä klo 03 UTC - 10. päivään klo 04 UTC
Näkyvyys: 3500 m

TAF: ZUCK 090904Z 0912/1012 08003MPS 3500 BR SCT040 TX14/1007Z TN07/0922Z BECMG 0922/0923 1500 BR BECMG 1003/1004 3500

Säähavainnot ja -ennusteet yli 4000 lentoasemalta (METAR- ja TAF-raportit).

Käytössä olevat sääasemat on merkitty karttaan keltaisilla ja punaisilla pisteillä.

Aseta hiiri pisteen päälle nähdäksesi sääaseman nimen.

Klikkaa sitten nähdäksesi säähavainnot ja -ennusteet.

Kartan vaihtaminen: klikkaa mustalla rastilla varustettuja vihreitä pisteitä, niin voit zoomata sisään; viivalla varustettua vihreää pistettä, niin voit zoomata ulos tai vihreitä nuolia, niin pääset viereisille kartoille.


METAR-TAF: